createdAt,value
2023-02-20T00:02:10.695Z,77.55
2023-02-20T00:04:39.863Z,77.49
2023-02-20T00:07:07.662Z,77.57
2023-02-20T00:09:35.459Z,78.61
2023-02-20T00:12:03.252Z,78.92
2023-02-20T00:14:31.161Z,77.88
2023-02-20T00:16:58.935Z,78.13
2023-02-20T00:19:26.756Z,77.79
2023-02-20T00:21:55.834Z,78.40
2023-02-20T00:24:23.804Z,77.66
2023-02-20T00:26:54.679Z,77.99
2023-02-20T00:29:25.159Z,78.45
2023-02-20T00:31:53.783Z,77.43
2023-02-20T00:34:21.678Z,77.65
2023-02-20T00:36:49.472Z,78.09
2023-02-20T00:39:18.601Z,78.28
2023-02-20T00:41:46.403Z,77.96
2023-02-20T00:44:14.253Z,78.74
2023-02-20T00:46:42.052Z,78.34
2023-02-20T00:49:09.769Z,78.42
2023-02-20T00:51:37.558Z,78.21
2023-02-20T00:54:06.078Z,77.16
2023-02-20T00:56:35.180Z,77.36
2023-02-20T00:59:02.978Z,76.80
2023-02-20T01:01:31.203Z,77.01
2023-02-20T01:03:59.048Z,77.25
2023-02-20T01:06:26.847Z,76.50
2023-02-20T01:08:54.602Z,77.16
2023-02-20T01:11:23.165Z,76.97
2023-02-20T01:13:52.304Z,77.04
2023-02-20T01:16:20.201Z,76.72
2023-02-20T01:18:51.914Z,77.32
2023-02-20T01:21:20.306Z,77.39
2023-02-20T01:23:48.081Z,78.05
2023-02-20T01:26:15.872Z,77.37
2023-02-20T01:28:45.400Z,77.58
2023-02-20T01:31:14.740Z,77.95
2023-02-20T01:33:43.281Z,77.38
2023-02-20T01:36:12.001Z,77.74
2023-02-20T01:38:42.694Z,77.83
2023-02-20T01:41:12.077Z,78.17
2023-02-20T01:43:39.911Z,78.57
2023-02-20T01:46:51.757Z,78.16
2023-02-20T01:49:29.992Z,77.97
2023-02-20T01:52:07.680Z,77.64
2023-02-20T01:54:39.609Z,77.66
2023-02-20T01:57:18.348Z,78.64
2023-02-20T01:59:48.658Z,77.84
2023-02-20T02:02:18.455Z,78.37
2023-02-20T02:04:50.222Z,78.40
2023-02-20T02:07:18.506Z,78.23
2023-02-20T02:09:58.139Z,79.21
2023-02-20T02:12:26.122Z,78.43
2023-02-20T02:14:53.887Z,78.73
2023-02-20T02:17:51.959Z,78.26
2023-02-20T02:21:10.975Z,78.51
2023-02-20T02:24:17.991Z,79.29
2023-02-20T02:27:31.510Z,79.01
2023-02-20T02:30:35.230Z,79.04
2023-02-20T02:33:49.496Z,78.36
2023-02-20T02:36:50.196Z,79.03
2023-02-20T02:39:32.013Z,78.72
2023-02-20T02:42:13.823Z,78.91
2023-02-20T02:44:52.339Z,79.17
2023-02-20T02:47:32.022Z,79.46
2023-02-20T02:50:06.272Z,79.27
2023-02-20T02:52:46.622Z,79.85
2023-02-20T02:55:18.960Z,78.84
2023-02-20T02:57:47.095Z,78.82
2023-02-20T03:00:22.665Z,78.81
2023-02-20T03:03:00.919Z,79.69
2023-02-20T03:05:41.026Z,79.05
2023-02-20T03:08:30.859Z,79.71
2023-02-20T03:11:05.817Z,80.32
2023-02-20T03:13:59.403Z,79.67
2023-02-20T03:16:36.677Z,80.79
2023-02-20T03:19:13.735Z,80.12
2023-02-20T03:21:45.289Z,80.37
2023-02-20T03:24:21.817Z,80.87
2023-02-20T03:26:51.880Z,79.88
2023-02-20T03:29:27.903Z,81.01
2023-02-20T03:32:19.960Z,80.51
2023-02-20T03:35:09.290Z,81.13
2023-02-20T03:38:01.836Z,80.99
2023-02-20T03:40:51.762Z,81.99
2023-02-20T03:43:25.507Z,82.41
2023-02-20T03:46:02.489Z,82.66
2023-02-20T03:48:36.003Z,82.07
2023-02-20T03:51:04.650Z,82.48
2023-02-20T03:53:33.574Z,82.04
2023-02-20T03:56:09.571Z,82.70
2023-02-20T03:58:42.065Z,82.20
2023-02-20T04:01:15.502Z,81.82
2023-02-20T04:03:49.834Z,82.29
2023-02-20T04:06:21.323Z,82.33
2023-02-20T04:08:59.681Z,82.65
2023-02-20T04:11:35.852Z,81.05
2023-02-20T04:14:04.935Z,82.28
2023-02-20T04:16:40.015Z,81.84
2023-02-20T04:19:08.016Z,81.88
2023-02-20T04:21:42.767Z,82.56
2023-02-20T04:24:17.855Z,82.16
2023-02-20T04:26:48.275Z,81.79
2023-02-20T04:29:15.957Z,82.55
2023-02-20T04:31:43.721Z,82.31
2023-02-20T04:34:11.673Z,83.21
2023-02-20T04:36:40.394Z,82.15
2023-02-20T04:39:08.172Z,82.38
2023-02-20T04:41:36.289Z,83.00
2023-02-20T04:44:23.239Z,82.60
2023-02-20T04:46:51.036Z,83.36
2023-02-20T04:49:18.827Z,83.69
2023-02-20T04:51:46.676Z,83.77
2023-02-20T04:54:14.462Z,84.12
2023-02-20T04:56:42.339Z,84.00
2023-02-20T04:59:11.660Z,84.52
2023-02-20T05:01:39.517Z,84.22
2023-02-20T05:04:07.430Z,83.57
2023-02-20T05:06:35.355Z,83.31
2023-02-20T05:09:03.144Z,82.85
2023-02-20T05:11:30.921Z,83.37
2023-02-20T05:13:58.696Z,82.97
2023-02-20T05:16:27.856Z,82.97
2023-02-20T05:18:55.594Z,82.56
2023-02-20T05:21:41.120Z,82.82
2023-02-20T05:24:09.748Z,82.59
2023-02-20T05:26:37.844Z,82.86
2023-02-20T05:29:06.371Z,83.59
2023-02-20T05:31:36.808Z,82.99
2023-02-20T05:34:04.691Z,82.55
2023-02-20T05:36:32.629Z,83.48
2023-02-20T05:39:00.485Z,82.39
2023-02-20T05:41:28.288Z,82.62
2023-02-20T05:43:57.578Z,81.77
2023-02-20T05:46:26.357Z,81.28
2023-02-20T05:48:56.192Z,81.47
2023-02-20T05:51:26.710Z,81.77
2023-02-20T05:53:55.316Z,80.28
2023-02-20T05:56:23.364Z,81.68
2023-02-20T05:58:52.219Z,81.37
2023-02-20T06:01:22.985Z,81.40
2023-02-20T06:03:51.431Z,81.89
2023-02-20T06:06:21.933Z,82.37
2023-02-20T06:08:49.805Z,81.85
2023-02-20T06:11:18.279Z,82.88
2023-02-20T06:13:47.498Z,82.29
2023-02-20T06:16:22.626Z,82.34
2023-02-20T06:18:50.501Z,82.59
2023-02-20T06:21:20.805Z,81.42
2023-02-20T06:23:48.540Z,81.44
2023-02-20T06:26:17.388Z,81.41
2023-02-20T06:28:45.793Z,81.78
2023-02-20T06:31:14.909Z,81.12
2023-02-20T06:33:42.686Z,80.72
2023-02-20T06:36:23.426Z,80.21
2023-02-20T06:38:51.443Z,81.31
2023-02-20T06:41:19.786Z,80.85
2023-02-20T06:43:47.673Z,80.81
2023-02-20T06:46:15.656Z,80.28
2023-02-20T06:48:47.648Z,80.50
2023-02-20T06:51:17.869Z,80.91
2023-02-20T06:53:47.195Z,80.94
2023-02-20T06:56:19.848Z,80.21
2023-02-20T06:58:49.406Z,81.16
2023-02-20T07:01:18.491Z,81.43
2023-02-20T07:03:48.919Z,81.83
2023-02-20T07:06:17.108Z,81.75
2023-02-20T07:08:46.279Z,81.38
2023-02-20T07:11:15.348Z,81.59
2023-02-20T07:13:43.225Z,81.70
2023-02-20T07:16:11.230Z,81.80
2023-02-20T07:18:39.161Z,82.24
2023-02-20T07:21:07.658Z,82.51
2023-02-20T07:23:35.436Z,81.90
2023-02-20T07:26:04.991Z,81.47
2023-02-20T07:28:38.944Z,80.64
2023-02-20T07:31:06.882Z,81.42
2023-02-20T07:33:34.695Z,81.39
2023-02-20T07:36:02.500Z,82.27
2023-02-20T07:38:30.328Z,81.83
2023-02-20T07:40:58.065Z,81.31
2023-02-20T07:43:27.198Z,79.98
2023-02-20T07:45:55.000Z,80.84
2023-02-20T07:48:22.811Z,81.03
2023-02-20T07:50:52.544Z,80.33
2023-02-20T07:53:22.438Z,82.02
2023-02-20T07:55:50.229Z,81.25
2023-02-20T07:58:17.988Z,80.96
2023-02-20T08:00:47.164Z,81.00
2023-02-20T08:03:14.921Z,80.90
2023-02-20T08:05:48.986Z,81.91
2023-02-20T08:08:18.095Z,81.23
2023-02-20T08:10:47.025Z,81.40
2023-02-20T08:13:14.844Z,80.70
2023-02-20T08:15:44.670Z,80.63
2023-02-20T08:18:23.202Z,81.47
2023-02-20T08:20:52.768Z,80.81
2023-02-20T08:23:25.805Z,81.18
2023-02-20T08:25:53.663Z,81.42
2023-02-20T08:28:21.923Z,82.11
2023-02-20T08:30:49.708Z,82.17
2023-02-20T08:33:18.900Z,81.07
2023-02-20T08:35:48.446Z,80.84
2023-02-20T08:38:28.602Z,81.92
2023-02-20T08:40:57.069Z,81.46
2023-02-20T08:43:27.746Z,80.84
2023-02-20T08:45:56.376Z,81.61
2023-02-20T08:48:25.804Z,81.20
2023-02-20T08:50:54.419Z,81.38
2023-02-20T08:53:22.753Z,80.44
2023-02-20T08:55:50.582Z,81.67
2023-02-20T08:58:21.575Z,81.35
2023-02-20T09:00:50.116Z,81.79
2023-02-20T09:03:18.502Z,82.16
2023-02-20T09:05:47.672Z,80.47
2023-02-20T09:08:15.708Z,81.38
2023-02-20T09:10:43.797Z,81.13
2023-02-20T09:13:12.086Z,81.07
2023-02-20T09:15:40.143Z,81.01
2023-02-20T09:18:10.433Z,81.53
2023-02-20T09:20:38.754Z,81.07
2023-02-20T09:23:08.405Z,81.19
2023-02-20T09:25:37.291Z,80.63
2023-02-20T09:28:05.671Z,79.90
2023-02-20T09:30:33.581Z,79.90
2023-02-20T09:33:01.659Z,80.59
2023-02-20T09:35:32.311Z,80.35
2023-02-20T09:38:01.729Z,80.57
2023-02-20T09:40:32.751Z,80.76
2023-02-20T09:43:30.872Z,80.75
2023-02-20T09:46:07.352Z,79.82
2023-02-20T09:48:52.796Z,79.95
2023-02-20T09:51:24.908Z,79.71
2023-02-20T09:54:03.466Z,80.45
2023-02-20T09:56:37.428Z,81.61
2023-02-20T09:59:14.865Z,80.72
2023-02-20T10:01:53.999Z,79.91
2023-02-20T10:04:28.209Z,79.49
2023-02-20T10:07:14.279Z,79.50
2023-02-20T10:09:42.083Z,79.12
2023-02-20T10:12:26.868Z,79.26
2023-02-20T10:15:12.012Z,78.65
2023-02-20T10:17:53.531Z,79.14
2023-02-20T10:20:31.200Z,78.41
2023-02-20T10:23:16.406Z,80.70
2023-02-20T10:25:50.662Z,80.22
2023-02-20T10:28:23.343Z,80.62
2023-02-20T10:31:01.338Z,80.64
2023-02-20T10:33:37.802Z,80.16
2023-02-20T10:36:19.216Z,80.29
2023-02-20T10:38:53.995Z,80.05
2023-02-20T10:41:32.739Z,80.79
2023-02-20T10:44:10.107Z,79.74
2023-02-20T10:46:50.504Z,79.83
2023-02-20T10:49:31.458Z,80.13
2023-02-20T10:52:03.602Z,79.80
2023-02-20T10:54:44.686Z,79.67
2023-02-20T10:57:21.847Z,79.77
2023-02-20T11:00:00.288Z,79.56
2023-02-20T11:02:35.351Z,79.93
2023-02-20T11:05:09.430Z,80.27
2023-02-20T11:07:37.407Z,80.14
2023-02-20T11:10:05.940Z,79.66
2023-02-20T11:12:41.581Z,79.96
2023-02-20T11:15:17.091Z,79.51
2023-02-20T11:17:47.438Z,80.35
2023-02-20T11:20:45.932Z,80.96
2023-02-20T11:23:41.200Z,79.82
2023-02-20T11:26:32.747Z,80.02
2023-02-20T11:29:16.670Z,80.45
2023-02-20T11:31:47.783Z,80.57
2023-02-20T11:34:21.461Z,79.68
2023-02-20T11:36:54.504Z,80.08
2023-02-20T11:39:27.058Z,79.90
2023-02-20T11:42:14.270Z,79.76
2023-02-20T11:44:42.565Z,79.07
2023-02-20T11:47:23.016Z,79.32
2023-02-20T11:50:18.664Z,79.50
2023-02-20T11:53:05.006Z,79.96
2023-02-20T11:55:33.694Z,80.45
2023-02-20T11:58:03.346Z,80.22
2023-02-20T12:00:49.877Z,80.29
2023-02-20T12:03:24.686Z,80.66
2023-02-20T12:06:24.005Z,79.85
2023-02-20T12:08:56.840Z,80.45
2023-02-20T12:11:29.318Z,81.22
2023-02-20T12:14:01.337Z,80.16
2023-02-20T12:16:53.370Z,81.42
2023-02-20T12:19:35.405Z,81.94
2023-02-20T12:22:20.806Z,81.56
2023-02-20T12:25:10.201Z,81.87
2023-02-20T12:27:59.460Z,81.48
2023-02-20T12:30:48.825Z,81.14
2023-02-20T12:33:48.766Z,81.30
2023-02-20T12:36:32.429Z,81.29
2023-02-20T12:39:09.370Z,81.25
2023-02-20T12:41:53.501Z,81.91
2023-02-20T12:44:40.688Z,80.98
2023-02-20T12:47:25.137Z,81.32
2023-02-20T12:50:06.728Z,81.48
2023-02-20T12:52:58.886Z,81.62
2023-02-20T12:55:40.218Z,80.71
2023-02-20T12:58:26.280Z,81.74
2023-02-20T13:01:00.863Z,81.37
2023-02-20T13:03:45.349Z,81.03
2023-02-20T13:06:25.135Z,79.90
2023-02-20T13:09:07.755Z,80.55
2023-02-20T13:11:42.126Z,81.33
2023-02-20T13:14:30.483Z,81.82
2023-02-20T13:17:17.584Z,81.75
2023-02-20T13:19:57.742Z,81.52
2023-02-20T13:22:25.873Z,82.57
2023-02-20T13:24:55.272Z,82.23
2023-02-20T13:27:33.172Z,81.95
2023-02-20T13:30:11.766Z,81.29
2023-02-20T13:32:40.138Z,79.90
2023-02-20T13:35:51.343Z,81.16
2023-02-20T13:38:22.518Z,81.04
2023-02-20T13:41:08.469Z,81.00
2023-02-20T13:43:37.429Z,80.34
2023-02-20T13:46:22.557Z,80.16
2023-02-20T13:48:53.740Z,80.39
2023-02-20T13:51:36.743Z,80.45
2023-02-20T13:54:25.646Z,80.07
2023-02-20T13:57:03.025Z,80.16
2023-02-20T13:59:31.521Z,80.69
2023-02-20T14:02:16.046Z,80.90
2023-02-20T14:04:59.170Z,80.72
2023-02-20T14:07:37.296Z,80.80
2023-02-20T14:10:11.564Z,79.83
2023-02-20T14:12:42.953Z,79.59
2023-02-20T14:15:11.423Z,78.81
2023-02-20T14:17:43.628Z,78.61
2023-02-20T14:20:25.159Z,79.24
2023-02-20T14:23:17.118Z,78.56
2023-02-20T14:26:00.311Z,79.22
2023-02-20T14:28:32.668Z,78.39
2023-02-20T14:31:24.771Z,78.37
2023-02-20T14:33:59.489Z,79.49
2023-02-20T14:36:45.208Z,78.71
2023-02-20T14:39:33.719Z,78.97
2023-02-20T14:42:05.316Z,78.20
2023-02-20T14:44:34.697Z,77.90
2023-02-20T14:47:10.582Z,78.83
2023-02-20T14:49:38.929Z,78.39
2023-02-20T14:52:21.590Z,78.34
2023-02-20T14:55:02.283Z,78.42
2023-02-20T14:57:32.262Z,79.14
2023-02-20T15:00:25.404Z,78.71
2023-02-20T15:02:57.284Z,78.70
2023-02-20T15:05:32.006Z,79.16
2023-02-20T15:08:11.932Z,79.23
2023-02-20T15:10:43.582Z,79.33
2023-02-20T15:13:16.450Z,78.83
2023-02-20T15:15:49.835Z,78.32
2023-02-20T15:18:33.543Z,79.28
2023-02-20T15:21:01.828Z,78.75
2023-02-20T15:23:33.112Z,79.48
2023-02-20T15:26:32.129Z,78.53
2023-02-20T15:29:22.671Z,79.41
2023-02-20T15:32:00.180Z,79.16
2023-02-20T15:34:30.770Z,78.64
2023-02-20T15:36:59.592Z,79.23
2023-02-20T15:39:28.661Z,78.76
2023-02-20T15:41:56.683Z,78.55
2023-02-20T15:44:24.983Z,78.79
2023-02-20T15:46:53.064Z,78.95
2023-02-20T15:49:22.468Z,78.46
2023-02-20T15:51:56.161Z,78.74
2023-02-20T15:54:27.580Z,78.85
2023-02-20T15:56:55.717Z,78.44
2023-02-20T15:59:23.677Z,78.44
2023-02-20T16:01:51.818Z,78.90
2023-02-20T16:04:22.498Z,78.72
2023-02-20T16:06:50.534Z,79.58
2023-02-20T16:09:18.618Z,79.27
2023-02-20T16:11:48.742Z,79.23
2023-02-20T16:14:17.948Z,79.09
2023-02-20T16:16:54.803Z,79.37
2023-02-20T16:19:36.594Z,79.83
2023-02-20T16:22:10.612Z,80.27
2023-02-20T16:24:40.589Z,79.94
2023-02-20T16:27:23.074Z,79.33
2023-02-20T16:29:52.393Z,79.75
2023-02-20T16:32:25.928Z,79.23
2023-02-20T16:34:58.233Z,78.21
2023-02-20T16:37:28.772Z,78.82
2023-02-20T16:39:56.922Z,78.72
2023-02-20T16:42:33.760Z,79.01
2023-02-20T16:45:07.268Z,79.21
2023-02-20T16:47:35.226Z,79.68
2023-02-20T16:50:07.309Z,79.46
2023-02-20T16:52:37.881Z,80.26
2023-02-20T16:55:07.953Z,79.77
2023-02-20T16:57:35.872Z,79.54
2023-02-20T17:00:06.066Z,79.55
2023-02-20T17:02:33.974Z,80.81
2023-02-20T17:05:02.391Z,80.11
2023-02-20T17:07:32.071Z,80.38
2023-02-20T17:10:02.037Z,79.91
2023-02-20T17:12:31.087Z,80.78
2023-02-20T17:14:58.953Z,80.02
2023-02-20T17:17:27.396Z,80.47
2023-02-20T17:19:57.044Z,80.51
2023-02-20T17:22:26.439Z,80.30
2023-02-20T17:24:57.525Z,80.38
2023-02-20T17:27:26.439Z,79.82
2023-02-20T17:29:54.415Z,79.64
2023-02-20T17:32:22.325Z,80.93
2023-02-20T17:34:50.294Z,80.89
2023-02-20T17:37:18.296Z,80.51
2023-02-20T17:39:46.619Z,81.29
2023-02-20T17:42:16.150Z,80.54
2023-02-20T17:44:44.093Z,80.51
2023-02-20T17:47:12.331Z,80.88
2023-02-20T17:49:41.683Z,80.69
2023-02-20T17:52:11.580Z,80.77
2023-02-20T17:54:41.355Z,81.24
2023-02-20T17:57:09.546Z,80.71
2023-02-20T17:59:40.462Z,82.00
2023-02-20T18:02:10.679Z,82.05
2023-02-20T18:04:38.768Z,81.16
2023-02-20T18:07:10.411Z,80.44
2023-02-20T18:09:38.801Z,80.64
2023-02-20T18:12:08.218Z,79.89
2023-02-20T18:14:36.320Z,80.30
2023-02-20T18:17:05.773Z,80.25
2023-02-20T18:19:33.716Z,80.17
2023-02-20T18:22:01.778Z,80.59
2023-02-20T18:24:30.744Z,80.85
2023-02-20T18:27:01.966Z,81.08
2023-02-20T18:29:30.360Z,80.27
2023-02-20T18:31:59.670Z,81.05
2023-02-20T18:34:30.912Z,81.31
2023-02-20T18:36:59.088Z,80.60
2023-02-20T18:39:38.942Z,80.62
2023-02-20T18:42:07.228Z,81.71
2023-02-20T18:44:35.164Z,81.11
2023-02-20T18:47:05.036Z,81.49
2023-02-20T18:49:35.446Z,81.14
2023-02-20T18:52:04.913Z,79.94
2023-02-20T18:54:33.533Z,80.25
2023-02-20T18:57:03.977Z,80.55
2023-02-20T18:59:32.640Z,80.33
2023-02-20T19:02:03.503Z,80.66
2023-02-20T19:04:33.323Z,80.60
2023-02-20T19:07:03.688Z,81.68
2023-02-20T19:09:34.298Z,80.92
2023-02-20T19:12:03.741Z,79.33
2023-02-20T19:14:31.736Z,80.45
2023-02-20T19:17:02.701Z,80.37
2023-02-20T19:19:34.478Z,80.29
2023-02-20T19:22:03.999Z,80.23
2023-02-20T19:24:31.926Z,80.43
2023-02-20T19:26:59.836Z,81.14
2023-02-20T19:29:28.208Z,81.19
2023-02-20T19:31:56.641Z,81.09
2023-02-20T19:34:24.793Z,80.99
2023-02-20T19:36:53.989Z,81.85
2023-02-20T19:39:24.380Z,81.36
2023-02-20T19:41:53.419Z,80.92
2023-02-20T19:44:23.533Z,81.51
2023-02-20T19:46:53.369Z,81.08
2023-02-20T19:49:22.691Z,80.91
2023-02-20T19:51:53.043Z,81.69
2023-02-20T19:54:27.690Z,81.03
2023-02-20T19:56:58.787Z,81.36
2023-02-20T19:59:27.173Z,81.39
2023-02-20T20:01:57.972Z,81.60
2023-02-20T20:04:30.512Z,81.86
2023-02-20T20:06:59.544Z,81.75
2023-02-20T20:09:36.507Z,81.38
2023-02-20T20:12:27.971Z,81.12
2023-02-20T20:14:57.077Z,81.05
2023-02-20T20:17:25.183Z,80.62
2023-02-20T20:20:00.223Z,81.13
2023-02-20T20:22:29.633Z,81.35
2023-02-20T20:24:59.811Z,80.51
2023-02-20T20:27:28.009Z,81.14
2023-02-20T20:29:56.057Z,82.04
2023-02-20T20:32:24.771Z,81.86
2023-02-20T20:34:55.727Z,81.79
2023-02-20T20:37:25.997Z,82.50
2023-02-20T20:39:54.589Z,82.39
2023-02-20T20:42:26.444Z,82.03
2023-02-20T20:44:56.585Z,81.73
2023-02-20T20:47:26.669Z,81.85
2023-02-20T20:49:55.054Z,81.68
2023-02-20T20:52:24.922Z,80.60
2023-02-20T20:54:55.199Z,81.47
2023-02-20T20:57:27.707Z,80.79
2023-02-20T21:00:00.361Z,81.25
2023-02-20T21:02:29.445Z,80.79
2023-02-20T21:05:09.417Z,80.56
2023-02-20T21:07:38.601Z,81.58
2023-02-20T21:10:07.927Z,81.75
2023-02-20T21:12:37.382Z,81.78
2023-02-20T21:15:05.778Z,81.92
2023-02-20T21:17:34.321Z,81.44
2023-02-20T21:20:07.184Z,81.51
2023-02-20T21:22:35.687Z,82.34
2023-02-20T21:25:04.662Z,82.45
2023-02-20T21:27:32.669Z,80.67
2023-02-20T21:30:02.183Z,81.14
2023-02-20T21:32:30.093Z,82.31
2023-02-20T21:34:58.522Z,82.30
2023-02-20T21:37:27.750Z,81.40
2023-02-20T21:39:55.705Z,81.96
2023-02-20T21:42:41.267Z,81.91
2023-02-20T21:45:11.429Z,81.27
2023-02-20T21:47:41.626Z,80.92
2023-02-20T21:50:09.991Z,80.58
2023-02-20T21:52:37.947Z,80.89
2023-02-20T21:55:10.917Z,81.86
2023-02-20T21:57:38.780Z,82.04
2023-02-20T22:00:10.347Z,81.92
2023-02-20T22:02:37.516Z,82.02
2023-02-20T22:05:05.616Z,81.94
2023-02-20T22:07:51.472Z,82.32
2023-02-20T22:10:37.155Z,81.76
2023-02-20T22:13:22.728Z,80.93
2023-02-20T22:16:10.057Z,82.10
2023-02-20T22:18:55.456Z,81.93
2023-02-20T22:21:43.350Z,82.84
2023-02-20T22:24:37.872Z,82.70
2023-02-20T22:27:26.089Z,81.88
2023-02-20T22:30:11.944Z,81.79
2023-02-20T22:32:58.895Z,81.76
2023-02-20T22:35:44.566Z,81.84
2023-02-20T22:38:30.096Z,82.63
2023-02-20T22:41:15.788Z,82.31
2023-02-20T22:44:01.417Z,82.26
2023-02-20T22:46:47.107Z,82.49
2023-02-20T22:49:34.090Z,82.65
2023-02-20T22:52:19.502Z,82.08
2023-02-20T22:55:06.031Z,82.28
2023-02-20T22:57:52.605Z,82.40
2023-02-20T23:00:38.393Z,81.59
2023-02-20T23:03:24.013Z,82.17
2023-02-20T23:06:18.087Z,82.14
2023-02-20T23:09:05.613Z,82.48
2023-02-20T23:11:53.429Z,82.03
2023-02-20T23:14:39.153Z,82.19
2023-02-20T23:17:35.573Z,81.98
2023-02-20T23:20:24.623Z,82.38
2023-02-20T23:23:11.548Z,82.31
2023-02-20T23:25:57.302Z,81.72
2023-02-20T23:28:42.935Z,81.89
2023-02-20T23:31:28.760Z,82.30
2023-02-20T23:34:14.475Z,81.58
2023-02-20T23:37:05.001Z,82.47
2023-02-20T23:39:52.185Z,82.10
2023-02-20T23:42:39.269Z,81.26
2023-02-20T23:45:28.060Z,82.26
2023-02-20T23:48:13.638Z,81.43
2023-02-20T23:50:59.125Z,81.43
2023-02-20T23:53:44.657Z,82.87
2023-02-20T23:56:31.700Z,82.97
2023-02-20T23:59:17.356Z,82.44
